Time;durP1;ratioP1;P1;durP2;ratioP2;P2;SDS_P1;SDS_P2;PMS_P1;PMS_P2;Temp;Humidity;BMP_temperature;BMP_pressure;BME280_temperature;BME280_humidity;BME280_pressure;Samples;Min_cycle;Max_cycle;Signal;HPM_P1;HPM_P2
2022/02/10 11:39:08;;;;;;;4.57;3.03;;;20.10;34.70;;;;;;5060961;28;20783;-44
2022/02/10 11:41:53;;;;;;;6.50;3.50;;;20.10;34.20;;;;;;5066307;28;20764;-44
2022/02/10 12:36:00;;;;;;;3.33;2.97;;;20.40;32.20;;;;;;5037088;28;20496;-45
2022/02/10 13:26:00;;;;;;;3.73;3.43;;;20.30;33.50;;;;;;5030889;28;20450;-45
2022/02/10 14:17:32;;;;;;;4.30;3.80;;;20.50;32.80;;;;;;5008014;28;20514;-41
2022/02/10 14:20:12;;;;;;;4.23;3.30;;;20.60;32.80;;;;;;5007565;28;20412;-42
2022/02/10 14:22:50;;;;;;;3.90;3.60;;;20.60;32.60;;;;;;5033583;28;20950;-42
2022/02/10 14:28:00;;;;;;;3.47;3.20;;;20.70;32.50;;;;;;5069918;28;20946;-41
2022/02/10 14:30:25;;;;;;;3.73;3.40;;;20.70;32.50;;;;;;5069361;28;20490;-44
2022/02/10 14:32:51;;;;;;;3.40;3.10;;;20.70;32.40;;;;;;5068858;28;20239;-40
2022/02/10 14:35:26;;;;;;;3.20;2.83;;;20.70;32.80;;;;;;5069341;28;20626;-47
2022/02/10 14:38:12;;;;;;;3.67;3.03;;;20.70;32.50;;;;;;5069201;28;20171;-41
2022/02/10 14:41:09;;;;;;;3.90;3.43;;;20.70;32.70;;;;;;5069384;28;20916;-43
2022/02/10 15:15:04;;;;;;;3.97;3.43;;;20.40;33.10;;;;;;5059657;28;20436;-43
2022/02/10 15:49:38;;;;;;;5.40;4.60;;;20.70;33.20;;;;;;5068502;28;20822;-46
2022/02/10 16:17:05;;;;;;;12.60;7.60;;;19.20;41.70;;;;;;5150452;27;20568;-72
2022/02/10 16:19:32;;;;;;;12.10;7.00;;;19.70;40.50;;;;;;5111046;28;20500;-72
2022/02/10 16:22:12;;;;;;;7.83;6.77;;;19.90;38.10;;;;;;5111260;28;20406;-72
2022/02/10 16:24:52;;;;;;;21.50;7.70;;;20.10;37.00;;;;;;5110982;28;20741;-72
2022/02/10 16:27:27;;;;;;;12.60;6.37;;;20.10;36.70;;;;;;5111125;28;20415;-74
2022/02/10 16:30:00;;;;;;;6.77;6.13;;;20.10;36.60;;;;;;5110550;28;20759;-74
2022/02/10 16:32:27;;;;;;;10.70;7.00;;;20.10;36.80;;;;;;5110475;28;20411;-75
2022/02/10 16:34:52;;;;;;;8.73;6.70;;;20.10;36.80;;;;;;5110571;28;20461;-74
2022/02/10 16:37:19;;;;;;;9.47;6.70;;;20.10;36.90;;;;;;5110936;28;20403;-74
2022/02/10 16:39:45;;;;;;;8.20;7.23;;;20.10;38.70;;;;;;5128911;27;20186;-74
2022/02/10 16:42:14;;;;;;;8.40;7.10;;;20.10;39.50;;;;;;5110279;28;20426;-76
2022/02/10 16:44:40;;;;;;;10.23;6.80;;;20.10;40.50;;;;;;5110204;28;20672;-75
2022/02/10 16:47:10;;;;;;;7.30;6.30;;;20.10;40.40;;;;;;5110771;28;20415;-75
2022/02/10 16:49:44;;;;;;;11.15;7.50;;;20.10;39.60;;;;;;5108661;28;20813;-72
2022/02/10 16:52:11;;;;;;;9.50;7.50;;;20.10;40.40;;;;;;5110265;28;20189;-75
2022/02/10 16:54:42;;;;;;;7.30;6.60;;;20.00;38.00;;;;;;5105734;28;20439;-73
2022/02/10 16:57:20;;;;;;;6.50;6.00;;;20.10;33.80;;;;;;5090598;28;20455;-73
2022/02/10 17:00:06;;;;;;;6.43;5.80;;;20.20;33.00;;;;;;5101524;27;20421;-73
2022/02/10 17:21:27;;;;;;;6.80;6.30;;;10.00;34.90;;;;;;5150085;27;20425;-87
2022/02/10 17:29:12;;;;;;;7.90;7.40;;;9.30;38.70;;;;;;5137029;27;20410;-84
2022/02/10 17:31:48;;;;;;;7.30;6.70;;;9.20;39.50;;;;;;5117831;27;20169;-84
2022/02/10 17:34:37;;;;;;;6.50;6.10;;;9.10;40.00;;;;;;5118402;27;20410;-83
2022/02/10 17:53:05;;;;;;;8.63;8.13;;;8.90;42.30;;;;;;5135163;27;20390;-83
2022/02/10 17:55:31;;;;;;;7.80;7.30;;;8.90;40.60;;;;;;5116590;27;20831;-84
2022/02/10 17:57:57;;;;;;;7.50;7.10;;;8.90;43.10;;;;;;5116570;27;20415;-83
2022/02/10 18:00:25;;;;;;;7.53;7.13;;;8.80;40.10;;;;;;5134640;27;20407;-83
2022/02/10 18:02:55;;;;;;;8.47;7.33;;;8.80;41.60;;;;;;5116577;27;20499;-83
2022/02/10 18:08:10;;;;;;;8.03;7.43;;;8.80;41.40;;;;;;5134458;27;20430;-83
2022/02/10 18:15:56;;;;;;;8.23;7.80;;;8.80;42.00;;;;;;5131157;27;21129;-84
2022/02/10 18:18:32;;;;;;;9.20;8.30;;;8.80;43.30;;;;;;5113149;27;20418;-83
2022/02/10 18:26:34;;;;;;;8.20;7.60;;;8.80;43.90;;;;;;5131016;27;20403;-84
2022/02/10 18:29:17;;;;;;;9.90;7.63;;;8.80;44.20;;;;;;5111325;27;20965;-83
2022/02/10 19:01:43;;;;;;;8.50;8.00;;;8.60;45.30;;;;;;5129903;27;20457;-84
2022/02/10 19:09:53;;;;;;;8.67;8.27;;;8.60;47.00;;;;;;5128537;27;20402;-83
2022/02/10 19:12:28;;;;;;;8.40;7.87;;;8.50;45.50;;;;;;5108422;27;20422;-83
2022/02/10 19:14:57;;;;;;;8.50;8.00;;;8.50;45.60;;;;;;5108805;27;20801;-83
2022/02/10 19:17:27;;;;;;;8.30;7.80;;;8.50;46.30;;;;;;5109209;27;20446;-82
2022/02/10 19:19:53;;;;;;;9.30;8.50;;;8.50;46.30;;;;;;5109081;27;20525;-82
2022/02/10 19:22:21;;;;;;;8.20;7.77;;;8.40;45.10;;;;;;5108480;27;20505;-83
2022/02/10 19:24:47;;;;;;;8.90;8.40;;;8.50;46.70;;;;;;5109309;27;20187;-82
2022/02/10 19:27:16;;;;;;;7.87;7.47;;;8.50;46.20;;;;;;5108850;27;20498;-82
2022/02/10 19:29:42;;;;;;;8.93;8.23;;;8.50;45.80;;;;;;5109181;27;20184;-79
2022/02/10 19:32:12;;;;;;;8.82;8.13;;;8.50;47.40;;;;;;5125633;27;20920;-78
2022/02/10 19:34:38;;;;;;;8.67;8.17;;;8.40;45.40;;;;;;5108387;27;20181;-83
2022/02/10 19:37:04;;;;;;;7.83;7.37;;;8.40;47.80;;;;;;5108336;27;20423;-83
2022/02/10 19:39:30;;;;;;;8.27;7.87;;;8.40;46.20;;;;;;5108168;27;20850;-83
2022/02/10 19:41:56;;;;;;;8.50;8.00;;;8.30;48.20;;;;;;5105230;27;20498;-83
2022/02/10 19:44:21;;;;;;;8.60;8.10;;;8.30;46.10;;;;;;5104419;27;20181;-83
2022/02/10 19:46:47;;;;;;;8.27;7.80;;;8.40;48.50;;;;;;5103129;27;20181;-84
2022/02/10 19:49:20;;;;;;;9.27;8.57;;;8.40;48.00;;;;;;5103874;27;20800;-83
2022/02/10 19:51:47;;;;;;;8.90;8.30;;;8.40;46.20;;;;;;5107478;27;20599;-83
2022/02/10 19:54:15;;;;;;;8.90;8.40;;;8.40;48.20;;;;;;5107681;27;20487;-84
2022/02/10 19:56:40;;;;;;;8.80;8.30;;;8.40;48.60;;;;;;5107041;27;20462;-83
2022/02/10 19:59:08;;;;;;;8.50;8.10;;;8.40;48.10;;;;;;5107764;27;20418;-83
2022/02/10 20:01:33;;;;;;;9.33;8.73;;;8.40;47.70;;;;;;5107686;27;20177;-83
2022/02/10 20:04:04;;;;;;;8.50;7.90;;;8.30;47.80;;;;;;5107246;28;20989;-83
2022/02/10 20:06:30;;;;;;;8.50;8.00;;;8.30;46.50;;;;;;5107220;28;20193;-83
2022/02/10 20:08:56;;;;;;;9.33;8.63;;;8.30;47.80;;;;;;5107077;27;20793;-83
2022/02/10 20:11:22;;;;;;;10.47;9.47;;;8.30;47.40;;;;;;5106721;28;20418;-82
2022/02/10 20:13:48;;;;;;;9.37;8.73;;;8.30;47.40;;;;;;5106662;28;20181;-82
2022/02/10 20:16:14;;;;;;;10.73;10.03;;;8.20;48.80;;;;;;5106674;28;20648;-83
2022/02/10 20:18:39;;;;;;;9.03;8.43;;;8.20;48.90;;;;;;5106386;28;20225;-83
2022/02/10 20:21:08;;;;;;;10.50;9.70;;;8.20;48.20;;;;;;5107387;28;20414;-83
2022/02/10 20:23:34;;;;;;;10.50;9.80;;;8.20;48.10;;;;;;5110386;28;20604;-82
2022/02/10 20:26:03;;;;;;;10.83;10.03;;;8.20;48.80;;;;;;5111575;28;20516;-83
2022/02/10 20:28:29;;;;;;;10.00;9.10;;;8.20;48.10;;;;;;5108025;28;20267;-82
2022/02/10 20:30:56;;;;;;;11.40;10.53;;;8.20;49.40;;;;;;5089778;28;20514;-81
2022/02/10 20:33:24;;;;;;;11.20;10.13;;;8.10;48.70;;;;;;5090014;28;20236;-82
2022/02/10 20:35:54;;;;;;;10.07;9.47;;;8.20;49.60;;;;;;5089889;28;20463;-83
2022/02/10 20:38:21;;;;;;;11.77;10.73;;;8.10;49.40;;;;;;5090252;28;20819;-83
2022/02/10 20:40:55;;;;;;;10.93;10.20;;;8.20;49.00;;;;;;5090146;28;20967;-83
2022/02/10 20:43:21;;;;;;;10.77;9.70;;;8.20;49.60;;;;;;5090072;28;20416;-82
2022/02/10 20:45:53;;;;;;;11.97;11.07;;;8.20;50.90;;;;;;5089055;28;20469;-82
2022/02/10 20:48:20;;;;;;;12.13;11.10;;;8.20;50.10;;;;;;5089337;28;20465;-83
2022/02/10 20:50:51;;;;;;;12.50;11.70;;;8.10;49.70;;;;;;5089341;28;20426;-82
2022/02/10 20:53:17;;;;;;;11.32;10.35;;;8.10;49.90;;;;;;5088720;28;20431;-82
2022/02/10 20:55:43;;;;;;;10.90;10.10;;;8.20;49.50;;;;;;5089435;28;20571;-82
2022/02/10 20:58:09;;;;;;;11.47;10.73;;;8.10;50.10;;;;;;5089223;28;20416;-83
2022/02/10 21:00:35;;;;;;;11.27;10.57;;;8.20;50.90;;;;;;5089556;28;20245;-82
2022/02/10 21:03:00;;;;;;;12.93;9.90;;;8.10;49.60;;;;;;5092242;28;20172;-82
2022/02/10 21:10:35;;;;;;;10.70;10.10;;;8.10;50.80;;;;;;5111915;28;20502;-82
2022/02/10 21:13:01;;;;;;;10.30;9.70;;;8.10;50.60;;;;;;5092763;28;20437;-82
2022/02/10 21:15:31;;;;;;;11.13;10.43;;;8.10;49.50;;;;;;5092913;28;20467;-82
2022/02/10 21:18:01;;;;;;;10.97;10.37;;;8.10;50.40;;;;;;5093716;28;20174;-83
2022/02/10 21:20:30;;;;;;;11.87;11.07;;;8.10;51.80;;;;;;5094033;28;20993;-82
2022/02/10 21:25:42;;;;;;;11.17;10.37;;;8.20;51.30;;;;;;5111711;28;20497;-83
2022/02/10 21:28:32;;;;;;;11.07;10.37;;;8.10;50.80;;;;;;5093051;28;20467;-82
2022/02/10 21:30:57;;;;;;;11.10;10.10;;;8.10;52.00;;;;;;5110155;28;20427;-82
2022/02/10 21:33:30;;;;;;;11.10;9.60;;;8.20;52.30;;;;;;5093398;28;20415;-82
2022/02/10 21:38:54;;;;;;;10.23;9.63;;;8.20;52.50;;;;;;5110822;28;20910;-83
2022/02/10 22:23:21;;;;;;;11.13;10.43;;;8.20;50.40;;;;;;5110428;28;20469;-82
2022/02/10 22:25:48;;;;;;;10.70;10.10;;;8.20;50.90;;;;;;5091501;28;20434;-82
2022/02/10 22:28:31;;;;;;;11.60;11.00;;;8.20;49.70;;;;;;5091273;28;20412;-83
2022/02/10 22:36:10;;;;;;;12.00;11.30;;;8.20;49.40;;;;;;5110098;28;20448;-82
2022/02/10 22:38:36;;;;;;;10.83;10.23;;;8.20;49.30;;;;;;5091210;28;20173;-82
2022/02/10 22:41:09;;;;;;;14.30;13.20;;;8.20;49.70;;;;;;5091257;28;20415;-83
2022/02/10 22:43:36;;;;;;;13.27;12.37;;;8.20;50.90;;;;;;5092139;28;20416;-81
2022/02/10 22:46:02;;;;;;;13.37;12.40;;;8.20;50.50;;;;;;5092133;28;20447;-83
2022/02/10 22:48:27;;;;;;;12.90;12.00;;;8.20;50.90;;;;;;5093368;28;20450;-84
2022/02/10 22:50:53;;;;;;;14.07;13.13;;;8.20;50.90;;;;;;5109973;28;20412;-82
2022/02/10 22:53:21;;;;;;;13.87;12.67;;;8.20;51.40;;;;;;5091729;28;20220;-82
2022/02/10 22:55:47;;;;;;;10.70;9.93;;;8.20;50.60;;;;;;5092012;28;20879;-81
2022/02/10 22:58:13;;;;;;;10.33;9.73;;;8.20;49.40;;;;;;5092346;28;20455;-82
2022/02/10 23:00:47;;;;;;;12.13;11.23;;;8.20;48.70;;;;;;5091222;28;20533;-81
2022/02/10 23:03:22;;;;;;;11.13;10.33;;;8.20;49.00;;;;;;5091316;28;20415;-80
2022/02/10 23:05:48;;;;;;;11.27;10.57;;;8.10;49.00;;;;;;5091477;28;20479;-80
2022/02/10 23:08:15;;;;;;;10.50;9.80;;;8.20;49.80;;;;;;5091188;28;20444;-80
2022/02/10 23:10:46;;;;;;;10.80;10.10;;;8.10;49.50;;;;;;5090729;28;20433;-80
2022/02/10 23:13:25;;;;;;;9.80;9.20;;;8.10;48.70;;;;;;5091188;28;20451;-80
2022/02/10 23:15:52;;;;;;;10.70;10.07;;;8.10;49.00;;;;;;5090827;28;20854;-80
2022/02/10 23:18:21;;;;;;;10.10;9.50;;;8.10;50.80;;;;;;5091093;28;20464;-80
2022/02/10 23:20:49;;;;;;;11.43;10.77;;;8.10;51.20;;;;;;5089662;28;20408;-79
2022/02/10 23:23:17;;;;;;;10.20;9.60;;;8.10;50.60;;;;;;5089547;28;20418;-79
2022/02/10 23:25:45;;;;;;;9.57;8.93;;;8.10;51.80;;;;;;5109221;28;20314;-80
2022/02/10 23:28:13;;;;;;;10.43;9.80;;;8.20;52.80;;;;;;5091498;28;20508;-80
2022/02/10 23:30:40;;;;;;;12.17;11.43;;;8.20;50.90;;;;;;5091618;28;20423;-80
2022/02/10 23:33:17;;;;;;;10.50;9.90;;;8.20;50.90;;;;;;5091409;28;20926;-83
2022/02/10 23:38:32;;;;;;;9.97;9.37;;;8.20;50.80;;;;;;5109638;28;20424;-84
2022/02/10 23:43:50;;;;;;;10.10;9.47;;;8.10;50.00;;;;;;5078006;28;20495;-83
2022/02/10 23:46:17;;;;;;;9.57;8.83;;;8.10;49.40;;;;;;5091024;28;20519;-83
2022/02/10 23:48:43;;;;;;;10.20;9.40;;;8.10;48.80;;;;;;5091652;28;20411;-84
2022/02/10 23:51:09;;;;;;;10.40;9.77;;;8.00;48.90;;;;;;5091577;28;20415;-83
2022/02/10 23:53:37;;;;;;;9.20;8.70;;;7.90;49.20;;;;;;5091505;28;20429;-84
2022/02/10 23:56:08;;;;;;;10.63;9.93;;;7.90;49.60;;;;;;5091014;28;20462;-84
2022/02/10 23:59:02;;;;;;;9.77;9.07;;;7.90;49.60;;;;;;5090701;28;20416;-84
